Time;durP1;ratioP1;P1;durP2;ratioP2;P2;SDS_P1;SDS_P2;PMS_P1;PMS_P2;Temp;Humidity;BMP_temperature;BMP_pressure;BME280_temperature;BME280_humidity;BME280_pressure;Samples;Min_cycle;Max_cycle;Signal;HPM_P1;HPM_P2
2022/08/16 00:00:22;;;;;;;5.40;3.40;;;;;;;18.23;91.49;95700.56;5038238;28;20197;-69
2022/08/16 00:02:51;;;;;;;5.78;3.67;;;;;;;18.27;90.90;95705.22;5036290;28;20221;-69
2022/08/16 00:05:18;;;;;;;6.85;3.42;;;;;;;18.15;91.30;95693.75;5036626;28;20217;-69
2022/08/16 00:07:45;;;;;;;5.28;3.05;;;;;;;18.11;91.35;95699.78;5037308;28;20197;-69
2022/08/16 00:10:14;;;;;;;6.32;3.60;;;;;;;18.18;91.34;95697.84;5037742;28;20207;-69
2022/08/16 00:12:41;;;;;;;5.15;3.40;;;;;;;18.09;91.40;95708.03;5036324;28;20200;-69
2022/08/16 00:15:13;;;;;;;5.25;3.20;;;;;;;18.17;91.41;95709.50;5037140;28;20224;-69
2022/08/16 00:17:39;;;;;;;6.85;3.40;;;;;;;17.97;91.60;95719.75;5037162;28;20216;-69
2022/08/16 00:20:09;;;;;;;5.28;3.40;;;;;;;18.14;91.21;95709.97;5036950;28;20209;-69
2022/08/16 00:22:37;;;;;;;4.60;3.10;;;;;;;18.03;91.30;95710.81;5036018;28;20225;-69
2022/08/16 00:25:06;;;;;;;5.30;3.22;;;;;;;18.11;91.36;95715.78;5036879;28;20228;-69
2022/08/16 00:27:33;;;;;;;5.20;3.35;;;;;;;17.99;91.87;95717.66;5033169;28;20768;-69
2022/08/16 00:29:59;;;;;;;6.20;3.72;;;;;;;17.90;92.56;95719.06;5037097;28;20204;-69
2022/08/16 00:32:26;;;;;;;5.47;3.30;;;;;;;17.95;92.31;95721.84;5036223;28;20197;-69
2022/08/16 00:34:52;;;;;;;7.05;3.30;;;;;;;17.99;92.14;95723.00;5036499;28;20217;-69
2022/08/16 00:37:22;;;;;;;7.38;3.58;;;;;;;18.06;91.82;95719.16;5036306;28;20201;-69
2022/08/16 00:39:48;;;;;;;4.60;2.92;;;;;;;17.85;92.16;95718.97;5036887;28;20207;-69
2022/08/16 00:42:17;;;;;;;5.80;3.15;;;;;;;17.89;92.64;95707.59;5035825;28;20791;-69
2022/08/16 00:44:52;;;;;;;6.78;3.63;;;;;;;17.92;92.96;95716.97;5036608;28;20225;-69
2022/08/16 00:47:19;;;;;;;7.35;3.28;;;;;;;17.99;92.46;95723.00;5036677;28;20458;-69
2022/08/16 00:49:46;;;;;;;8.68;3.80;;;;;;;17.84;92.75;95730.66;5036322;28;20200;-69
2022/08/16 00:52:13;;;;;;;6.45;2.97;;;;;;;17.82;92.97;95724.78;5036404;28;20197;-69
2022/08/16 00:54:41;;;;;;;4.45;3.05;;;;;;;17.86;92.84;95723.25;5035996;28;20626;-69
2022/08/16 00:57:08;;;;;;;5.57;3.10;;;;;;;17.74;93.08;95727.75;5036488;28;20209;-68
2022/08/16 00:59:37;;;;;;;5.85;3.25;;;;;;;17.92;92.90;95719.63;5036914;28;20201;-69
2022/08/16 01:02:07;;;;;;;5.63;3.10;;;;;;;17.84;93.07;95707.47;5036829;28;20587;-69
2022/08/16 01:04:34;;;;;;;5.47;3.08;;;;;;;17.82;92.72;95706.13;5035782;28;21448;-69
2022/08/16 01:07:03;;;;;;;4.78;3.20;;;;;;;17.87;92.69;95704.34;5036074;28;21064;-69
2022/08/16 01:09:31;;;;;;;6.25;3.05;;;;;;;17.77;93.02;95703.34;5037296;28;20571;-69
2022/08/16 01:12:00;;;;;;;6.45;3.20;;;;;;;17.79;93.04;95706.56;5036235;28;20274;-69
2022/08/16 01:14:30;;;;;;;5.63;3.15;;;;;;;17.77;93.18;95709.47;5035155;28;20220;-69
2022/08/16 01:16:58;;;;;;;5.70;2.95;;;;;;;17.60;93.85;95707.72;5036463;28;21023;-69
2022/08/16 01:19:30;;;;;;;6.15;2.92;;;;;;;17.63;93.85;95712.63;5037040;28;20204;-69
2022/08/16 01:22:00;;;;;;;6.43;3.28;;;;;;;17.67;93.90;95711.09;5036079;28;20205;-69
2022/08/16 01:24:34;;;;;;;5.30;3.10;;;;;;;17.67;93.57;95713.78;5035739;28;20221;-69
2022/08/16 01:27:04;;;;;;;6.88;3.25;;;;;;;17.24;96.69;95712.44;5036572;28;20205;-69
2022/08/16 01:29:38;;;;;;;4.90;3.20;;;;;;;17.48;95.17;95706.94;5032686;28;20212;-69
2022/08/16 01:32:05;;;;;;;5.43;3.35;;;;;;;17.14;96.15;95709.53;5036505;28;20205;-68
2022/08/16 01:34:32;;;;;;;7.22;3.47;;;;;;;17.27;94.92;95702.19;5035312;28;20225;-69
2022/08/16 01:37:02;;;;;;;9.63;3.65;;;;;;;17.43;94.25;95712.13;5036079;28;20201;-69
2022/08/16 01:39:31;;;;;;;7.88;3.50;;;;;;;17.43;94.01;95712.13;5036388;28;20212;-69
2022/08/16 01:41:58;;;;;;;6.57;3.92;;;;;;;17.35;93.85;95709.84;5036026;28;20210;-69
2022/08/16 01:44:25;;;;;;;6.82;3.40;;;;;;;17.34;94.02;95716.19;5034635;28;20735;-69
2022/08/16 01:46:54;;;;;;;5.18;3.17;;;;;;;17.33;94.47;95713.75;5036134;28;20209;-69
2022/08/16 01:49:23;;;;;;;5.68;2.95;;;;;;;17.45;94.26;95719.91;5036046;28;20708;-69
2022/08/16 01:51:55;;;;;;;4.78;3.25;;;;;;;17.47;94.02;95723.94;5035539;28;20197;-69
2022/08/16 01:54:22;;;;;;;6.45;3.50;;;;;;;17.34;93.70;95718.84;5035264;28;20595;-69
2022/08/16 01:56:50;;;;;;;5.93;3.40;;;;;;;17.30;94.08;95727.56;5036196;28;20212;-69
2022/08/16 01:59:17;;;;;;;5.70;3.17;;;;;;;17.07;94.83;95726.66;5036149;28;20327;-69
2022/08/16 02:01:44;;;;;;;4.82;3.25;;;;;;;17.10;95.04;95722.50;5035626;28;20483;-69
2022/08/16 02:04:10;;;;;;;6.95;3.70;;;;;;;17.11;94.75;95718.78;5035117;28;20224;-69
2022/08/16 02:06:39;;;;;;;6.20;3.83;;;;;;;17.11;94.48;95716.13;5032139;28;20205;-69
2022/08/16 02:09:07;;;;;;;5.20;3.40;;;;;;;17.18;94.27;95716.03;5039659;28;20217;-68
2022/08/16 02:11:35;;;;;;;7.13;3.70;;;;;;;17.06;95.18;95714.41;5039898;28;20201;-68
2022/08/16 02:14:03;;;;;;;8.32;3.33;;;;;;;17.09;95.05;95704.91;5038878;28;20221;-68
2022/08/16 02:16:30;;;;;;;7.95;3.50;;;;;;;17.07;94.65;95700.84;5038136;28;20745;-68
2022/08/16 02:18:56;;;;;;;5.20;3.17;;;;;;;17.05;94.85;95702.94;5039570;28;20205;-69
2022/08/16 02:21:23;;;;;;;8.45;3.63;;;;;;;17.08;94.93;95701.66;5039979;28;20220;-69
2022/08/16 02:23:49;;;;;;;7.53;3.30;;;;;;;16.97;95.25;95695.28;5037886;28;20224;-69
2022/08/16 02:26:16;;;;;;;5.22;3.35;;;;;;;16.95;95.67;95704.53;5039035;28;20209;-69
2022/08/16 02:28:43;;;;;;;6.20;3.13;;;;;;;17.03;94.99;95688.22;5036910;28;20201;-69
2022/08/16 02:31:14;;;;;;;7.05;3.45;;;;;;;17.09;95.59;95688.94;5038772;28;20200;-69
2022/08/16 02:33:42;;;;;;;5.35;3.10;;;;;;;17.05;95.59;95697.59;5036209;28;20378;-69
2022/08/16 02:36:09;;;;;;;5.90;3.17;;;;;;;17.04;94.68;95693.31;5038991;28;20201;-69
2022/08/16 02:38:37;;;;;;;6.57;3.13;;;;;;;16.86;93.90;95695.25;5038890;28;20201;-69
2022/08/16 02:41:04;;;;;;;5.68;3.35;;;;;;;16.65;93.02;95693.13;5039150;28;20213;-69
2022/08/16 02:43:32;;;;;;;5.03;3.05;;;;;;;16.68;93.19;95692.66;5038068;28;20594;-69
2022/08/16 02:45:59;;;;;;;5.13;3.22;;;;;;;16.61;93.82;95699.91;5038617;28;20221;-68
2022/08/16 02:48:29;;;;;;;5.38;3.13;;;;;;;16.66;94.71;95697.41;5037923;28;20206;-68
2022/08/16 02:50:56;;;;;;;8.07;3.67;;;;;;;16.47;95.71;95697.69;5039092;28;20259;-68
2022/08/16 02:53:23;;;;;;;6.00;3.10;;;;;;;16.61;94.58;95694.59;5037841;28;20201;-68
2022/08/16 02:55:50;;;;;;;5.32;2.95;;;;;;;16.62;93.96;95696.22;5038250;28;20724;-68
2022/08/16 02:58:16;;;;;;;4.50;2.85;;;;;;;16.62;93.05;95696.22;5038809;28;20209;-68
2022/08/16 03:00:43;;;;;;;5.43;3.17;;;;;;;16.49;92.77;95693.75;5038594;28;20700;-68
2022/08/16 03:03:09;;;;;;;4.90;2.70;;;;;;;16.45;93.19;95692.59;5037886;28;20939;-68
2022/08/16 03:05:37;;;;;;;5.43;3.30;;;;;;;16.28;96.56;95691.59;5038514;28;20577;-68
2022/08/16 03:08:04;;;;;;;4.75;2.88;;;;;;;16.28;96.42;95693.44;5038301;28;20209;-68
2022/08/16 03:10:30;;;;;;;5.63;3.10;;;;;;;16.28;95.21;95691.59;5038243;28;20870;-68
2022/08/16 03:12:58;;;;;;;4.97;2.92;;;;;;;16.23;95.74;95696.75;5037503;28;20212;-68
2022/08/16 03:15:25;;;;;;;5.32;3.42;;;;;;;16.09;98.34;95689.19;5038524;28;20636;-68
2022/08/16 03:17:52;;;;;;;7.28;3.78;;;;;;;16.04;98.90;95689.03;5037916;28;20208;-68
2022/08/16 03:20:19;;;;;;;5.40;3.38;;;;;;;16.18;97.82;95696.59;5038228;28;20227;-68
2022/08/16 03:22:47;;;;;;;5.20;3.40;;;;;;;16.25;97.97;95693.88;5037481;28;20231;-68
2022/08/16 03:25:16;;;;;;;6.38;3.58;;;;;;;16.24;96.58;95681.59;5037564;28;20228;-69
2022/08/16 03:27:43;;;;;;;6.45;3.47;;;;;;;15.92;97.34;95690.78;5034910;28;20255;-69
2022/08/16 03:30:13;;;;;;;5.47;3.42;;;;;;;16.18;96.99;95687.84;5038234;28;20202;-69
2022/08/16 03:32:40;;;;;;;6.35;3.40;;;;;;;16.09;97.18;95694.50;5037051;28;21254;-68
2022/08/16 03:35:07;;;;;;;5.47;3.20;;;;;;;16.20;96.92;95685.75;5037818;28;20248;-68
2022/08/16 03:37:35;;;;;;;9.43;3.72;;;;;;;16.20;96.90;95685.75;5038242;28;20208;-68
2022/08/16 03:40:04;;;;;;;6.90;3.55;;;;;;;16.33;96.67;95696.22;5037529;28;20224;-68
2022/08/16 03:42:31;;;;;;;8.10;3.55;;;;;;;16.10;96.11;95691.59;5036333;28;20682;-68
2022/08/16 03:44:57;;;;;;;5.75;3.67;;;;;;;16.10;96.06;95686.28;5037912;28;20244;-68
2022/08/16 03:47:26;;;;;;;6.70;3.63;;;;;;;16.23;95.61;95675.47;5037457;28;20240;-68
2022/08/16 03:49:52;;;;;;;7.72;3.38;;;;;;;16.07;96.81;95675.28;5037265;28;20292;-68
2022/08/16 03:52:19;;;;;;;5.72;3.20;;;;;;;16.11;97.05;95674.59;5036858;28;20251;-69
2022/08/16 03:54:46;;;;;;;5.18;3.42;;;;;;;16.08;95.50;95693.66;5037909;28;20240;-69
2022/08/16 03:57:16;;;;;;;5.40;3.28;;;;;;;16.20;95.39;95685.75;5037200;28;20240;-69
2022/08/16 03:59:42;;;;;;;4.90;3.28;;;;;;;16.07;94.90;95686.72;5037253;28;20877;-69
2022/08/16 04:02:10;;;;;;;5.90;3.47;;;;;;;16.14;94.61;95679.50;5037289;28;20205;-68
2022/08/16 04:04:37;;;;;;;3.85;2.83;;;;;;;16.18;92.88;95674.53;5036531;28;20228;-69
2022/08/16 04:07:05;;;;;;;6.43;3.05;;;;;;;15.90;92.14;95679.59;5037052;28;20204;-68
2022/08/16 04:09:32;;;;;;;7.03;3.40;;;;;;;15.70;93.51;95683.50;5037527;28;20204;-68
2022/08/16 04:11:59;;;;;;;6.90;3.30;;;;;;;15.84;93.67;95691.91;5036950;28;20700;-68
2022/08/16 04:14:27;;;;;;;5.53;3.30;;;;;;;15.91;93.99;95690.00;5036124;28;20224;-68
2022/08/16 04:16:54;;;;;;;5.88;3.10;;;;;;;15.74;94.70;95676.72;5037227;28;20228;-68
2022/08/16 04:19:20;;;;;;;4.95;2.97;;;;;;;15.57;95.21;95678.34;5037232;28;20216;-68
2022/08/16 04:21:47;;;;;;;5.88;3.25;;;;;;;15.73;94.51;95688.38;5036861;28;20201;-69
2022/08/16 04:24:13;;;;;;;6.40;3.38;;;;;;;15.84;93.18;95686.59;5036294;28;20235;-69
2022/08/16 04:26:40;;;;;;;6.15;3.28;;;;;;;15.72;94.11;95689.41;5037232;28;20658;-69
2022/08/16 04:29:06;;;;;;;5.25;2.95;;;;;;;15.85;92.70;95682.91;5033802;28;20204;-69
2022/08/16 04:31:34;;;;;;;7.03;2.97;;;;;;;15.86;92.44;95694.38;5036663;28;20201;-69
2022/08/16 04:34:01;;;;;;;7.28;3.42;;;;;;;15.73;93.68;95704.31;5036207;28;20685;-69
2022/08/16 04:36:28;;;;;;;10.32;3.95;;;;;;;15.86;93.59;95705.78;5036778;28;20205;-69
2022/08/16 04:38:56;;;;;;;11.30;3.15;;;;;;;15.82;93.63;95703.78;5036892;28;20627;-69
2022/08/16 04:41:23;;;;;;;6.28;3.13;;;;;;;15.66;93.81;95701.72;5036818;28;20209;-69
2022/08/16 04:43:50;;;;;;;5.20;3.08;;;;;;;15.63;94.53;95701.34;5035716;28;20224;-69
2022/08/16 04:46:16;;;;;;;5.40;3.00;;;;;;;15.77;93.57;95708.97;5036117;28;20290;-69
2022/08/16 04:48:44;;;;;;;5.32;3.00;;;;;;;15.69;94.42;95705.78;5037306;28;20240;-69
2022/08/16 04:51:11;;;;;;;4.43;2.75;;;;;;;15.68;94.64;95704.16;5036897;28;20204;-69
2022/08/16 04:53:38;;;;;;;4.55;2.90;;;;;;;15.73;95.26;95709.63;5035546;28;20201;-69
2022/08/16 04:56:05;;;;;;;4.03;2.55;;;;;;;15.69;96.32;95714.56;5036740;28;20201;-69
2022/08/16 04:58:32;;;;;;;5.95;3.22;;;;;;;15.73;96.73;95721.06;5036565;28;20232;-69
2022/08/16 05:00:59;;;;;;;6.47;3.40;;;;;;;15.80;96.37;95715.69;5036351;28;20286;-69
2022/08/16 05:03:25;;;;;;;6.07;3.28;;;;;;;15.88;96.33;95722.34;5035725;28;20240;-69
2022/08/16 05:05:54;;;;;;;6.35;2.90;;;;;;;16.07;95.27;95720.47;5036430;28;20236;-69
2022/08/16 05:08:21;;;;;;;7.75;3.28;;;;;;;15.98;95.94;95724.47;5036616;28;20213;-69
2022/08/16 05:10:47;;;;;;;5.53;3.38;;;;;;;16.18;95.55;95725.84;5036378;28;20201;-69
2022/08/16 05:13:16;;;;;;;7.10;3.45;;;;;;;16.33;94.93;95723.66;5035627;28;20201;-69
2022/08/16 05:15:42;;;;;;;7.18;4.10;;;;;;;16.32;97.88;95727.34;5036017;28;21219;-69
2022/08/16 05:18:09;;;;;;;7.43;4.25;;;;;;;16.52;96.85;95711.91;5036808;28;20200;-69
2022/08/16 05:20:35;;;;;;;6.97;3.92;;;;;;;16.62;96.61;95723.66;5036419;28;20197;-69
2022/08/16 05:23:03;;;;;;;7.03;4.03;;;;;;;16.74;96.68;95721.84;5035518;28;20228;-69
2022/08/16 05:25:30;;;;;;;9.00;4.15;;;;;;;16.59;97.79;95733.94;5035482;28;20229;-69
2022/08/16 05:27:58;;;;;;;7.70;3.83;;;;;;;16.77;97.25;95729.34;5033793;28;20220;-69
2022/08/16 05:30:25;;;;;;;7.05;3.80;;;;;;;16.89;97.41;95716.91;5035801;28;20201;-69
2022/08/16 05:32:52;;;;;;;6.15;3.95;;;;;;;16.85;98.17;95731.72;5035269;28;20197;-69
2022/08/16 05:35:18;;;;;;;7.68;3.92;;;;;;;17.00;98.16;95732.09;5035459;28;20224;-69
2022/08/16 05:37:45;;;;;;;9.27;4.20;;;;;;;17.12;97.66;95730.28;5035086;28;20198;-69
2022/08/16 05:40:14;;;;;;;9.23;4.03;;;;;;;17.37;97.93;95737.03;5035689;28;20201;-69
2022/08/16 05:42:41;;;;;;;10.00;3.85;;;;;;;17.38;97.60;95736.00;5037309;28;20213;-69
2022/08/16 05:45:08;;;;;;;7.45;4.28;;;;;;;17.63;96.94;95738.44;5039731;28;20955;-69
2022/08/16 05:47:35;;;;;;;7.15;3.75;;;;;;;17.47;97.51;95741.81;5039964;28;20202;-69
2022/08/16 05:50:02;;;;;;;6.63;3.53;;;;;;;17.73;96.18;95739.47;5040317;28;20576;-70
2022/08/16 05:52:28;;;;;;;6.40;3.72;;;;;;;17.83;95.97;95740.53;5038716;28;20204;-70
2022/08/16 05:54:55;;;;;;;10.35;3.75;;;;;;;17.92;95.12;95741.78;5039705;28;20213;-70
2022/08/16 05:57:23;;;;;;;9.05;3.72;;;;;;;18.09;95.72;95744.56;5039932;28;20201;-70
2022/08/16 05:59:49;;;;;;;6.55;3.70;;;;;;;18.05;96.27;95733.53;5040213;28;20201;-70
2022/08/16 06:02:17;;;;;;;8.48;3.17;;;;;;;18.12;94.03;95742.19;5038860;28;20693;-70
2022/08/16 06:04:44;;;;;;;4.15;3.10;;;;;;;18.27;92.63;95749.75;5039852;28;20236;-70
2022/08/16 06:07:10;;;;;;;8.48;3.10;;;;;;;18.23;93.01;95740.59;5039722;28;20369;-70
2022/08/16 06:09:38;;;;;;;5.20;3.10;;;;;;;18.49;92.43;95744.34;5039702;28;20209;-70
2022/08/16 06:12:05;;;;;;;6.85;3.42;;;;;;;18.54;90.06;95749.78;5039893;28;20224;-70
2022/08/16 06:14:33;;;;;;;6.60;3.58;;;;;;;18.57;90.40;95748.50;5038739;28;20217;-70
2022/08/16 06:16:59;;;;;;;6.93;3.00;;;;;;;18.39;90.90;95746.81;5039133;28;20201;-70
2022/08/16 06:19:26;;;;;;;4.88;2.83;;;;;;;18.69;89.65;95738.59;5039262;28;20205;-70
2022/08/16 06:21:53;;;;;;;4.35;3.03;;;;;;;18.89;89.42;95741.63;5037345;28;20216;-70
2022/08/16 06:24:19;;;;;;;4.53;3.10;;;;;;;18.76;87.75;95737.41;5037888;28;20229;-70
2022/08/16 06:26:46;;;;;;;4.45;2.83;;;;;;;18.67;88.36;95733.50;5038579;28;20193;-70
2022/08/16 06:29:12;;;;;;;6.57;3.17;;;;;;;18.85;87.79;95732.47;5035944;28;21294;-70
2022/08/16 06:31:40;;;;;;;4.13;2.60;;;;;;;18.96;89.05;95727.06;5039263;28;20476;-70
2022/08/16 06:34:07;;;;;;;5.40;3.17;;;;;;;18.92;88.32;95733.16;5037220;28;20224;-70
2022/08/16 06:36:33;;;;;;;3.88;2.97;;;;;;;18.87;87.77;95739.19;5038360;28;20198;-70
2022/08/16 06:39:00;;;;;;;4.10;2.80;;;;;;;18.84;88.39;95730.84;5038588;28;20197;-70
2022/08/16 06:41:26;;;;;;;4.45;2.97;;;;;;;18.94;87.94;95738.00;5037428;28;20673;-70
2022/08/16 06:43:53;;;;;;;5.82;2.80;;;;;;;19.00;88.91;95744.25;5037367;28;20237;-70
2022/08/16 06:46:27;;;;;;;5.80;2.63;;;;;;;19.23;86.64;95738.78;5039228;28;20208;-70
2022/08/16 06:48:55;;;;;;;6.47;3.17;;;;;;;19.27;87.32;95735.41;5038022;28;20193;-70
2022/08/16 06:51:21;;;;;;;7.05;3.13;;;;;;;19.14;86.97;95740.25;5036910;28;20213;-70
2022/08/16 06:53:48;;;;;;;7.20;3.10;;;;;;;19.37;86.67;95737.44;5036128;28;20780;-70
2022/08/16 06:56:14;;;;;;;5.22;3.38;;;;;;;19.47;86.87;95748.28;5038516;28;20662;-70
2022/08/16 06:58:41;;;;;;;5.70;3.08;;;;;;;19.55;87.16;95740.66;5037828;28;20201;-70
2022/08/16 07:01:07;;;;;;;5.32;3.30;;;;;;;19.55;86.40;95737.19;5038633;28;20205;-70
2022/08/16 07:03:34;;;;;;;4.88;2.72;;;;;;;19.74;85.75;95734.81;5037866;28;20197;-70
2022/08/16 07:06:02;;;;;;;5.32;3.17;;;;;;;19.59;87.67;95742.59;5037857;28;20229;-70
2022/08/16 07:08:29;;;;;;;5.35;2.97;;;;;;;19.61;85.81;95743.19;5037138;28;20201;-70
2022/08/16 07:10:57;;;;;;;5.45;3.05;;;;;;;19.75;85.73;95741.78;5037178;28;20197;-70
2022/08/16 07:13:24;;;;;;;4.90;3.00;;;;;;;19.98;85.25;95748.81;5037125;28;20568;-69
2022/08/16 07:15:51;;;;;;;8.75;3.25;;;;;;;19.83;85.63;95760.09;5038021;28;20217;-69
2022/08/16 07:18:19;;;;;;;6.75;3.20;;;;;;;20.10;84.81;95755.69;5037359;28;21047;-69
2022/08/16 07:20:47;;;;;;;5.18;2.83;;;;;;;20.15;85.20;95752.25;5035828;28;20211;-69
2022/08/16 07:23:17;;;;;;;4.38;2.95;;;;;;;20.30;85.07;95754.09;5036245;28;20619;-69
2022/08/16 07:25:44;;;;;;;4.03;2.58;;;;;;;20.27;84.10;95756.47;5036241;28;20235;-70
2022/08/16 07:28:13;;;;;;;5.15;2.70;;;;;;;20.48;83.65;95747.59;5034417;28;20319;-69
2022/08/16 07:30:40;;;;;;;5.13;2.85;;;;;;;20.49;82.78;95754.59;5036845;28;20209;-69
2022/08/16 07:33:08;;;;;;;5.78;3.20;;;;;;;20.46;82.45;95755.91;5036336;28;20204;-69
2022/08/16 07:35:35;;;;;;;6.85;3.17;;;;;;;20.60;82.43;95753.66;5036079;28;20225;-69
2022/08/16 07:38:01;;;;;;;5.88;3.17;;;;;;;20.69;82.02;95752.97;5036874;28;21273;-69
2022/08/16 07:40:30;;;;;;;4.63;2.80;;;;;;;20.91;81.73;95741.19;5037791;28;20208;-70
2022/08/16 07:42:56;;;;;;;4.40;3.10;;;;;;;20.81;81.62;95750.19;5036982;28;20338;-70
2022/08/16 07:45:23;;;;;;;4.80;3.20;;;;;;;20.79;80.97;95736.25;5037400;28;20225;-70
2022/08/16 07:47:49;;;;;;;4.55;2.78;;;;;;;20.80;81.15;95748.56;5037953;28;20221;-70
2022/08/16 07:50:16;;;;;;;5.72;3.20;;;;;;;21.07;80.41;95744.84;5037845;28;20201;-70
2022/08/16 07:52:44;;;;;;;5.05;2.63;;;;;;;21.24;80.54;95746.31;5036487;28;20204;-70
2022/08/16 07:55:12;;;;;;;5.30;2.72;;;;;;;21.40;79.89;95742.72;5037456;28;20233;-70
2022/08/16 07:57:41;;;;;;;4.03;2.30;;;;;;;21.49;76.94;95738.53;5038144;28;20635;-70
2022/08/16 08:00:09;;;;;;;3.47;2.47;;;;;;;21.74;77.24;95744.09;5036694;28;20204;-70
2022/08/16 08:02:35;;;;;;;6.40;2.72;;;;;;;21.74;76.18;95747.59;5034413;28;20682;-70
2022/08/16 08:05:02;;;;;;;5.28;2.90;;;;;;;21.82;74.82;95749.00;5035937;28;20587;-70
2022/08/16 08:07:29;;;;;;;4.07;2.67;;;;;;;21.92;74.57;95749.03;5037155;28;20280;-69
2022/08/16 08:09:56;;;;;;;7.20;2.95;;;;;;;22.16;75.49;95751.91;5035968;28;20228;-69
2022/08/16 08:12:23;;;;;;;4.25;2.53;;;;;;;21.87;75.97;95749.84;5036151;28;20197;-69
2022/08/16 08:14:52;;;;;;;4.55;2.38;;;;;;;22.19;73.80;95756.75;5036500;28;20217;-69
2022/08/16 08:17:18;;;;;;;4.13;2.60;;;;;;;22.16;73.26;95762.63;5037000;28;20290;-69
2022/08/16 08:19:47;;;;;;;5.78;2.70;;;;;;;22.19;73.23;95761.31;5035258;28;20206;-69
2022/08/16 08:22:13;;;;;;;5.68;2.60;;;;;;;22.16;72.44;95762.63;5036366;28;20583;-69
2022/08/16 08:24:40;;;;;;;4.70;2.92;;;;;;;22.21;73.20;95770.72;5036319;28;20235;-69
2022/08/16 08:27:08;;;;;;;5.47;2.72;;;;;;;22.42;72.12;95766.31;5035219;28;20197;-69
2022/08/16 08:29:36;;;;;;;3.95;2.00;;;;;;;22.73;71.98;95766.16;5033786;28;20228;-69
2022/08/16 08:32:06;;;;;;;6.35;2.60;;;;;;;22.96;71.86;95766.53;5036116;28;20804;-69
2022/08/16 08:34:33;;;;;;;3.70;2.50;;;;;;;23.10;72.25;95769.53;5035336;28;20716;-69
2022/08/16 08:36:59;;;;;;;7.05;3.15;;;;;;;23.25;71.31;95767.69;5035866;28;20212;-69
2022/08/16 08:39:26;;;;;;;6.82;2.90;;;;;;;23.08;70.65;95771.69;5036188;28;20212;-69
2022/08/16 08:41:53;;;;;;;4.68;3.03;;;;;;;23.51;68.46;95759.38;5035495;28;20332;-69
2022/08/16 08:44:20;;;;;;;6.10;2.78;;;;;;;23.32;71.01;95768.25;5035007;28;20526;-69
2022/08/16 08:46:47;;;;;;;7.00;2.92;;;;;;;23.30;68.52;95773.06;5036300;28;20224;-69
2022/08/16 08:49:15;;;;;;;4.55;3.13;;;;;;;23.56;66.98;95770.16;5035763;28;20254;-69
2022/08/16 08:51:41;;;;;;;5.47;3.25;;;;;;;23.44;66.85;95771.47;5033256;28;20209;-69
2022/08/16 08:54:09;;;;;;;4.90;2.95;;;;;;;23.60;67.25;95771.22;5034955;28;20232;-69
2022/08/16 08:56:36;;;;;;;5.28;2.63;;;;;;;23.95;68.09;95768.56;5035690;28;20597;-69
2022/08/16 08:59:03;;;;;;;4.65;3.05;;;;;;;24.15;67.26;95769.34;5036047;28;20395;-69
2022/08/16 09:01:32;;;;;;;6.43;3.13;;;;;;;24.34;66.35;95772.28;5034283;28;20213;-69
2022/08/16 09:03:59;;;;;;;5.45;3.13;;;;;;;24.60;65.70;95767.38;5035381;28;20217;-69
2022/08/16 09:06:27;;;;;;;4.18;3.13;;;;;;;24.65;64.67;95761.94;5035174;28;20359;-69
2022/08/16 09:08:53;;;;;;;4.35;3.03;;;;;;;24.46;63.43;95767.41;5035331;28;20201;-69
2022/08/16 09:11:20;;;;;;;5.13;3.35;;;;;;;24.56;63.29;95767.38;5036865;28;20197;-69
2022/08/16 09:13:47;;;;;;;5.63;2.90;;;;;;;24.75;65.53;95769.19;5034841;28;20557;-69
2022/08/16 09:16:16;;;;;;;4.35;2.67;;;;;;;24.83;66.05;95769.41;5037186;28;20228;-69
2022/08/16 09:18:43;;;;;;;5.22;3.33;;;;;;;25.12;63.29;95751.50;5039999;28;20209;-69
2022/08/16 09:21:10;;;;;;;6.00;3.17;;;;;;;25.23;63.14;95769.25;5039428;28;20810;-69
2022/08/16 09:23:39;;;;;;;9.05;3.45;;;;;;;25.11;60.92;95766.06;5038454;28;20201;-69
2022/08/16 09:26:08;;;;;;;3.58;2.65;;;;;;;24.94;61.31;95767.50;5039233;28;20232;-69
2022/08/16 09:28:35;;;;;;;5.93;3.60;;;;;;;24.81;61.09;95757.31;5039096;28;20471;-69
2022/08/16 09:31:01;;;;;;;5.40;3.30;;;;;;;25.00;63.12;95755.59;5040451;28;20201;-69
2022/08/16 09:33:28;;;;;;;5.28;3.58;;;;;;;25.27;59.84;95756.81;5038808;28;20208;-69
2022/08/16 09:35:54;;;;;;;6.10;3.50;;;;;;;25.05;59.05;95755.59;5040044;28;20224;-69
2022/08/16 09:38:21;;;;;;;6.20;3.08;;;;;;;25.40;60.60;95748.09;5038994;28;20209;-69
2022/08/16 09:40:49;;;;;;;5.80;3.35;;;;;;;25.76;57.69;95749.47;5039836;28;20206;-69
2022/08/16 09:43:19;;;;;;;7.88;3.40;;;;;;;25.76;58.13;95754.88;5039271;28;20213;-69
2022/08/16 09:45:45;;;;;;;9.10;3.78;;;;;;;25.74;59.54;95755.16;5039994;28;20236;-69
2022/08/16 09:48:14;;;;;;;5.07;3.30;;;;;;;25.85;60.31;95756.69;5039835;28;20201;-69
2022/08/16 09:50:42;;;;;;;8.65;4.00;;;;;;;26.11;58.23;95753.47;5039749;28;20209;-69
2022/08/16 09:53:13;;;;;;;6.38;3.25;;;;;;;26.56;58.87;95758.44;5038892;28;20205;-69
2022/08/16 09:55:39;;;;;;;4.78;3.05;;;;;;;26.53;58.49;95756.31;5039897;28;20221;-69
2022/08/16 09:58:07;;;;;;;8.45;3.15;;;;;;;26.75;57.54;95759.28;5039866;28;20954;-69
2022/08/16 10:00:34;;;;;;;6.97;2.70;;;;;;;26.74;55.07;95755.78;5036775;28;20201;-69
2022/08/16 10:03:00;;;;;;;10.15;2.97;;;;;;;27.03;56.85;95747.63;5038577;28;20566;-69
2022/08/16 10:05:27;;;;;;;4.75;3.03;;;;;;;27.12;55.15;95741.25;5038467;28;20229;-69
2022/08/16 10:07:54;;;;;;;5.82;2.80;;;;;;;27.17;52.86;95741.97;5038557;28;20201;-69
2022/08/16 10:10:22;;;;;;;3.83;2.80;;;;;;;27.43;52.10;95745.13;5038532;28;20209;-70
2022/08/16 10:15:36;;;;;;;5.82;3.38;;;;;;;27.34;50.35;95739.59;5039339;28;20278;-70
2022/08/16 10:18:06;;;;;;;7.63;3.70;;;;;;;27.40;52.01;95741.13;5038833;28;20201;-69
2022/08/16 10:20:36;;;;;;;4.32;3.30;;;;;;;27.34;52.37;95744.19;5039617;28;20216;-70
2022/08/16 10:23:04;;;;;;;7.88;3.20;;;;;;;27.79;51.36;95745.13;5038386;28;20208;-70
2022/08/16 10:25:30;;;;;;;4.15;2.80;;;;;;;27.27;51.15;95747.25;5038058;28;20241;-70
2022/08/16 10:27:57;;;;;;;4.70;2.92;;;;;;;27.91;47.57;95752.78;5038271;28;21258;-70
2022/08/16 10:30:23;;;;;;;4.20;3.00;;;;;;;27.03;48.31;95751.13;5039642;28;20212;-71
2022/08/16 10:32:51;;;;;;;3.65;2.50;;;;;;;26.96;49.92;95750.69;5038079;28;20224;-71
2022/08/16 10:35:18;;;;;;;5.63;2.90;;;;;;;26.76;50.38;95750.91;5038319;28;20988;-71
2022/08/16 10:37:45;;;;;;;6.78;3.03;;;;;;;26.48;53.44;95754.47;5039374;28;20209;-71
2022/08/16 10:40:11;;;;;;;5.72;2.85;;;;;;;26.84;50.00;95752.16;5038563;28;20775;-71
2022/08/16 10:42:38;;;;;;;5.47;3.35;;;;;;;26.98;49.57;95753.09;5037452;28;20220;-71
2022/08/16 10:45:05;;;;;;;5.72;3.47;;;;;;;27.19;49.88;95747.91;5038163;28;20768;-71
2022/08/16 10:47:32;;;;;;;3.35;3.03;;;;;;;27.43;49.04;95742.44;5038670;28;20220;-71
2022/08/16 10:50:00;;;;;;;6.00;2.78;;;;;;;27.68;50.09;95742.88;5038844;28;20201;-71
2022/08/16 10:52:26;;;;;;;4.47;3.20;;;;;;;27.60;47.67;95738.13;5037321;28;20212;-71
2022/08/16 10:54:53;;;;;;;4.75;3.20;;;;;;;27.50;47.53;95749.09;5037713;28;20318;-70
2022/08/16 10:57:19;;;;;;;4.40;2.95;;;;;;;27.44;46.68;95750.25;5038389;28;20224;-70
2022/08/16 10:59:46;;;;;;;5.28;3.10;;;;;;;27.28;47.56;95748.88;5037905;28;20691;-70
2022/08/16 11:02:13;;;;;;;3.97;2.72;;;;;;;26.96;47.00;95752.56;5035789;28;20259;-70
2022/08/16 11:04:39;;;;;;;3.40;2.90;;;;;;;26.45;48.59;95754.22;5037901;28;20225;-70
2022/08/16 11:07:07;;;;;;;3.97;2.72;;;;;;;26.45;51.41;95743.41;5037936;28;21008;-70
2022/08/16 11:09:34;;;;;;;4.57;3.50;;;;;;;26.50;49.88;95752.28;5037610;28;20197;-70
2022/08/16 11:12:00;;;;;;;5.05;2.95;;;;;;;26.78;49.81;95751.41;5038098;28;20201;-70
2022/08/16 11:14:27;;;;;;;5.68;2.97;;;;;;;26.79;49.49;95754.91;5037908;28;20216;-70
2022/08/16 11:16:53;;;;;;;4.72;3.22;;;;;;;27.08;48.67;95751.06;5037606;28;20228;-70
2022/08/16 11:19:20;;;;;;;4.63;2.92;;;;;;;27.24;48.13;95750.56;5038129;28;21294;-70
2022/08/16 11:21:46;;;;;;;5.35;2.85;;;;;;;26.80;49.19;95754.63;5038063;28;20205;-70
2022/08/16 11:24:14;;;;;;;3.20;2.75;;;;;;;26.87;48.15;95756.97;5037216;28;20355;-69
2022/08/16 11:26:41;;;;;;;4.10;3.05;;;;;;;26.77;48.31;95749.81;5038912;28;20217;-70
2022/08/16 11:29:08;;;;;;;9.45;2.95;;;;;;;26.78;48.86;95759.53;5038241;28;20200;-70
2022/08/16 11:31:35;;;;;;;5.03;3.33;;;;;;;27.08;46.81;95755.66;5037319;28;20208;-69
2022/08/16 11:34:02;;;;;;;5.13;2.90;;;;;;;27.39;46.55;95752.22;5037279;28;20236;-69
2022/08/16 11:36:29;;;;;;;4.43;2.90;;;;;;;27.85;45.37;95748.56;5038761;28;20582;-70